sensor_id;sensor_type;location;lat;lon;timestamp;P1;durP1;ratioP1;P2;durP2;ratioP2
4011;SDS011;2020;48.682;9.024;2023-02-05T00:00:51;13.50;;;7.40;;
4011;SDS011;2020;48.682;9.024;2023-02-05T00:03:16;11.77;;;7.10;;
4011;SDS011;2020;48.682;9.024;2023-02-05T00:05:41;11.00;;;8.20;;
4011;SDS011;2020;48.682;9.024;2023-02-05T00:08:07;15.63;;;8.93;;
4011;SDS011;2020;48.682;9.024;2023-02-05T00:10:32;11.73;;;9.27;;
4011;SDS011;2020;48.682;9.024;2023-02-05T00:12:57;14.77;;;9.27;;
4011;SDS011;2020;48.682;9.024;2023-02-05T00:15:23;15.40;;;8.03;;
4011;SDS011;2020;48.682;9.024;2023-02-05T00:17:48;8.90;;;7.90;;
4011;SDS011;2020;48.682;9.024;2023-02-05T00:20:13;11.40;;;7.93;;
4011;SDS011;2020;48.682;9.024;2023-02-05T00:22:38;11.67;;;8.60;;
4011;SDS011;2020;48.682;9.024;2023-02-05T00:25:04;12.63;;;7.13;;
4011;SDS011;2020;48.682;9.024;2023-02-05T00:27:29;10.10;;;6.80;;
4011;SDS011;2020;48.682;9.024;2023-02-05T00:29:56;9.43;;;8.20;;
4011;SDS011;2020;48.682;9.024;2023-02-05T00:32:21;8.83;;;8.03;;
4011;SDS011;2020;48.682;9.024;2023-02-05T00:34:47;13.23;;;7.80;;
4011;SDS011;2020;48.682;9.024;2023-02-05T00:37:12;10.90;;;7.10;;
4011;SDS011;2020;48.682;9.024;2023-02-05T00:39:37;8.73;;;7.07;;
4011;SDS011;2020;48.682;9.024;2023-02-05T00:42:02;7.73;;;6.77;;
4011;SDS011;2020;48.682;9.024;2023-02-05T00:44:28;8.00;;;6.97;;
4011;SDS011;2020;48.682;9.024;2023-02-05T00:46:53;8.63;;;7.00;;
4011;SDS011;2020;48.682;9.024;2023-02-05T00:49:18;11.40;;;7.97;;
4011;SDS011;2020;48.682;9.024;2023-02-05T00:51:43;8.90;;;6.87;;
4011;SDS011;2020;48.682;9.024;2023-02-05T00:54:09;13.47;;;7.33;;
4011;SDS011;2020;48.682;9.024;2023-02-05T00:56:34;9.33;;;6.73;;
4011;SDS011;2020;48.682;9.024;2023-02-05T00:58:59;8.13;;;6.33;;
4011;SDS011;2020;48.682;9.024;2023-02-05T01:01:24;11.20;;;7.97;;
4011;SDS011;2020;48.682;9.024;2023-02-05T01:03:50;11.73;;;7.60;;
4011;SDS011;2020;48.682;9.024;2023-02-05T01:06:15;7.63;;;6.87;;
4011;SDS011;2020;48.682;9.024;2023-02-05T01:08:40;11.10;;;6.27;;
4011;SDS011;2020;48.682;9.024;2023-02-05T01:11:06;9.93;;;6.60;;
4011;SDS011;2020;48.682;9.024;2023-02-05T01:13:32;10.33;;;6.77;;
4011;SDS011;2020;48.682;9.024;2023-02-05T01:15:58;12.90;;;8.10;;
4011;SDS011;2020;48.682;9.024;2023-02-05T01:18:23;11.60;;;9.40;;
4011;SDS011;2020;48.682;9.024;2023-02-05T01:20:48;8.60;;;7.70;;
4011;SDS011;2020;48.682;9.024;2023-02-05T01:23:13;11.40;;;7.20;;
4011;SDS011;2020;48.682;9.024;2023-02-05T01:25:39;11.40;;;7.33;;
4011;SDS011;2020;48.682;9.024;2023-02-05T01:28:04;7.37;;;6.60;;
4011;SDS011;2020;48.682;9.024;2023-02-05T01:30:30;15.60;;;7.73;;
4011;SDS011;2020;48.682;9.024;2023-02-05T01:32:56;12.50;;;7.47;;
4011;SDS011;2020;48.682;9.024;2023-02-05T01:35:21;16.13;;;8.53;;
4011;SDS011;2020;48.682;9.024;2023-02-05T01:37:46;11.73;;;7.23;;
4011;SDS011;2020;48.682;9.024;2023-02-05T01:40:13;13.93;;;7.70;;
4011;SDS011;2020;48.682;9.024;2023-02-05T01:42:39;9.97;;;8.50;;
4011;SDS011;2020;48.682;9.024;2023-02-05T01:48:00;12.43;;;7.60;;
4011;SDS011;2020;48.682;9.024;2023-02-05T01:50:31;15.40;;;8.27;;
4011;SDS011;2020;48.682;9.024;2023-02-05T01:53:07;8.80;;;7.67;;
4011;SDS011;2020;48.682;9.024;2023-02-05T01:55:39;7.63;;;6.33;;
4011;SDS011;2020;48.682;9.024;2023-02-05T01:58:09;7.00;;;6.30;;
4011;SDS011;2020;48.682;9.024;2023-02-05T02:00:35;10.17;;;7.53;;
4011;SDS011;2020;48.682;9.024;2023-02-05T02:03:00;13.07;;;6.53;;
4011;SDS011;2020;48.682;9.024;2023-02-05T02:05:26;7.13;;;6.43;;
4011;SDS011;2020;48.682;9.024;2023-02-05T02:07:51;9.17;;;7.33;;
4011;SDS011;2020;48.682;9.024;2023-02-05T02:10:16;14.50;;;8.20;;
4011;SDS011;2020;48.682;9.024;2023-02-05T02:12:44;9.87;;;7.30;;
4011;SDS011;2020;48.682;9.024;2023-02-05T02:15:12;7.93;;;7.20;;
4011;SDS011;2020;48.682;9.024;2023-02-05T02:17:42;7.97;;;6.47;;
4011;SDS011;2020;48.682;9.024;2023-02-05T02:20:15;8.37;;;6.70;;
4011;SDS011;2020;48.682;9.024;2023-02-05T02:28:12;11.20;;;5.77;;
4011;SDS011;2020;48.682;9.024;2023-02-05T02:33:08;8.83;;;6.77;;
4011;SDS011;2020;48.682;9.024;2023-02-05T02:38:30;7.00;;;6.10;;
4011;SDS011;2020;48.682;9.024;2023-02-05T02:41:02;9.40;;;6.20;;
4011;SDS011;2020;48.682;9.024;2023-02-05T02:43:45;11.13;;;8.67;;
4011;SDS011;2020;48.682;9.024;2023-02-05T02:49:07;9.30;;;6.77;;
4011;SDS011;2020;48.682;9.024;2023-02-05T02:51:36;8.63;;;6.93;;
4011;SDS011;2020;48.682;9.024;2023-02-05T02:54:05;8.77;;;6.00;;
4011;SDS011;2020;48.682;9.024;2023-02-05T02:56:33;7.77;;;6.90;;
4011;SDS011;2020;48.682;9.024;2023-02-05T02:59:04;8.10;;;7.30;;
4011;SDS011;2020;48.682;9.024;2023-02-05T03:01:34;8.83;;;6.60;;
4011;SDS011;2020;48.682;9.024;2023-02-05T03:04:10;7.40;;;6.70;;
4011;SDS011;2020;48.682;9.024;2023-02-05T03:06:42;6.50;;;6.00;;
4011;SDS011;2020;48.682;9.024;2023-02-05T03:09:12;7.97;;;6.37;;
4011;SDS011;2020;48.682;9.024;2023-02-05T03:11:47;17.40;;;6.70;;
4011;SDS011;2020;48.682;9.024;2023-02-05T03:14:12;8.50;;;6.30;;
4011;SDS011;2020;48.682;9.024;2023-02-05T03:16:38;9.60;;;6.53;;
4011;SDS011;2020;48.682;9.024;2023-02-05T03:19:03;7.50;;;6.40;;
4011;SDS011;2020;48.682;9.024;2023-02-05T03:21:34;10.83;;;7.10;;
4011;SDS011;2020;48.682;9.024;2023-02-05T03:24:05;6.43;;;5.90;;
4011;SDS011;2020;48.682;9.024;2023-02-05T03:26:33;8.00;;;6.37;;
4011;SDS011;2020;48.682;9.024;2023-02-05T03:29:01;8.47;;;6.43;;
4011;SDS011;2020;48.682;9.024;2023-02-05T03:31:39;5.77;;;5.27;;
4011;SDS011;2020;48.682;9.024;2023-02-05T03:34:37;8.47;;;6.60;;
4011;SDS011;2020;48.682;9.024;2023-02-05T03:40:13;10.50;;;6.30;;
4011;SDS011;2020;48.682;9.024;2023-02-05T03:54:25;7.60;;;5.93;;
4011;SDS011;2020;48.682;9.024;2023-02-05T03:56:59;8.60;;;6.80;;
4011;SDS011;2020;48.682;9.024;2023-02-05T03:59:26;6.47;;;5.80;;
4011;SDS011;2020;48.682;9.024;2023-02-05T04:01:53;8.43;;;5.33;;
4011;SDS011;2020;48.682;9.024;2023-02-05T04:04:19;5.70;;;5.17;;
4011;SDS011;2020;48.682;9.024;2023-02-05T04:06:45;5.63;;;5.00;;
4011;SDS011;2020;48.682;9.024;2023-02-05T04:09:13;13.50;;;5.10;;
4011;SDS011;2020;48.682;9.024;2023-02-05T04:11:38;6.63;;;4.77;;
4011;SDS011;2020;48.682;9.024;2023-02-05T04:14:03;7.60;;;5.03;;
4011;SDS011;2020;48.682;9.024;2023-02-05T04:16:29;6.20;;;5.60;;
4011;SDS011;2020;48.682;9.024;2023-02-05T04:18:54;10.73;;;4.33;;
4011;SDS011;2020;48.682;9.024;2023-02-05T04:21:19;5.00;;;4.67;;
4011;SDS011;2020;48.682;9.024;2023-02-05T04:23:45;9.67;;;5.23;;
4011;SDS011;2020;48.682;9.024;2023-02-05T04:26:10;10.50;;;5.00;;
4011;SDS011;2020;48.682;9.024;2023-02-05T04:28:35;8.67;;;4.50;;
4011;SDS011;2020;48.682;9.024;2023-02-05T04:31:01;4.30;;;3.90;;
4011;SDS011;2020;48.682;9.024;2023-02-05T04:33:26;9.90;;;5.50;;
4011;SDS011;2020;48.682;9.024;2023-02-05T04:35:56;7.43;;;4.93;;
4011;SDS011;2020;48.682;9.024;2023-02-05T04:38:22;5.77;;;5.10;;
4011;SDS011;2020;48.682;9.024;2023-02-05T04:40:47;4.80;;;4.30;;
4011;SDS011;2020;48.682;9.024;2023-02-05T04:43:12;7.23;;;4.73;;
4011;SDS011;2020;48.682;9.024;2023-02-05T04:45:38;4.63;;;4.23;;
4011;SDS011;2020;48.682;9.024;2023-02-05T04:48:03;9.93;;;4.70;;
4011;SDS011;2020;48.682;9.024;2023-02-05T04:50:30;8.57;;;4.57;;
4011;SDS011;2020;48.682;9.024;2023-02-05T04:52:56;4.97;;;4.57;;
4011;SDS011;2020;48.682;9.024;2023-02-05T04:55:21;8.70;;;4.30;;
4011;SDS011;2020;48.682;9.024;2023-02-05T04:57:47;11.20;;;5.70;;
4011;SDS011;2020;48.682;9.024;2023-02-05T05:00:12;10.10;;;4.93;;
4011;SDS011;2020;48.682;9.024;2023-02-05T05:02:38;10.73;;;4.90;;
4011;SDS011;2020;48.682;9.024;2023-02-05T05:05:03;5.87;;;5.17;;
4011;SDS011;2020;48.682;9.024;2023-02-05T05:07:29;7.17;;;4.40;;
4011;SDS011;2020;48.682;9.024;2023-02-05T05:09:54;4.97;;;4.47;;
4011;SDS011;2020;48.682;9.024;2023-02-05T05:12:20;9.03;;;5.00;;
4011;SDS011;2020;48.682;9.024;2023-02-05T05:14:45;7.83;;;5.30;;
4011;SDS011;2020;48.682;9.024;2023-02-05T05:17:10;5.40;;;5.10;;
4011;SDS011;2020;48.682;9.024;2023-02-05T05:19:37;11.70;;;5.53;;
4011;SDS011;2020;48.682;9.024;2023-02-05T05:22:02;8.73;;;5.83;;
4011;SDS011;2020;48.682;9.024;2023-02-05T05:24:27;11.07;;;5.50;;
4011;SDS011;2020;48.682;9.024;2023-02-05T05:26:53;11.13;;;6.33;;
4011;SDS011;2020;48.682;9.024;2023-02-05T05:29:18;7.23;;;6.60;;
4011;SDS011;2020;48.682;9.024;2023-02-05T05:31:43;14.63;;;7.03;;
4011;SDS011;2020;48.682;9.024;2023-02-05T05:34:09;9.60;;;6.63;;
4011;SDS011;2020;48.682;9.024;2023-02-05T05:36:34;7.40;;;5.83;;
4011;SDS011;2020;48.682;9.024;2023-02-05T05:38:59;10.13;;;5.47;;
4011;SDS011;2020;48.682;9.024;2023-02-05T05:41:44;9.83;;;5.87;;
4011;SDS011;2020;48.682;9.024;2023-02-05T05:44:28;11.13;;;6.00;;
4011;SDS011;2020;48.682;9.024;2023-02-05T05:46:54;7.47;;;6.53;;
4011;SDS011;2020;48.682;9.024;2023-02-05T05:49:19;7.20;;;5.60;;
4011;SDS011;2020;48.682;9.024;2023-02-05T05:51:44;7.83;;;7.00;;
4011;SDS011;2020;48.682;9.024;2023-02-05T05:54:09;11.73;;;6.77;;
4011;SDS011;2020;48.682;9.024;2023-02-05T05:56:35;7.47;;;6.00;;
4011;SDS011;2020;48.682;9.024;2023-02-05T05:59:00;6.50;;;6.00;;
4011;SDS011;2020;48.682;9.024;2023-02-05T06:01:26;6.07;;;5.60;;
4011;SDS011;2020;48.682;9.024;2023-02-05T06:03:51;9.53;;;7.10;;
4011;SDS011;2020;48.682;9.024;2023-02-05T06:06:17;15.53;;;7.47;;
4011;SDS011;2020;48.682;9.024;2023-02-05T06:08:42;7.07;;;6.27;;
4011;SDS011;2020;48.682;9.024;2023-02-05T06:11:07;10.67;;;7.80;;
4011;SDS011;2020;48.682;9.024;2023-02-05T06:13:33;7.13;;;6.27;;
4011;SDS011;2020;48.682;9.024;2023-02-05T06:15:58;15.57;;;8.87;;
4011;SDS011;2020;48.682;9.024;2023-02-05T06:18:24;9.20;;;7.90;;
4011;SDS011;2020;48.682;9.024;2023-02-05T06:20:49;8.13;;;7.17;;
4011;SDS011;2020;48.682;9.024;2023-02-05T06:23:15;11.17;;;7.07;;
4011;SDS011;2020;48.682;9.024;2023-02-05T06:25:40;11.03;;;7.20;;
4011;SDS011;2020;48.682;9.024;2023-02-05T06:28:05;13.03;;;7.47;;
4011;SDS011;2020;48.682;9.024;2023-02-05T06:30:31;12.67;;;8.27;;
4011;SDS011;2020;48.682;9.024;2023-02-05T06:32:56;8.73;;;6.90;;
4011;SDS011;2020;48.682;9.024;2023-02-05T06:35:21;7.87;;;7.07;;
4011;SDS011;2020;48.682;9.024;2023-02-05T06:37:47;7.57;;;6.70;;
4011;SDS011;2020;48.682;9.024;2023-02-05T06:40:13;8.00;;;6.20;;
4011;SDS011;2020;48.682;9.024;2023-02-05T06:42:39;7.47;;;6.80;;
4011;SDS011;2020;48.682;9.024;2023-02-05T06:45:05;8.17;;;6.80;;
4011;SDS011;2020;48.682;9.024;2023-02-05T06:47:30;7.00;;;6.40;;
4011;SDS011;2020;48.682;9.024;2023-02-05T06:49:56;14.73;;;6.30;;
4011;SDS011;2020;48.682;9.024;2023-02-05T06:52:21;13.27;;;7.10;;
4011;SDS011;2020;48.682;9.024;2023-02-05T06:54:46;8.23;;;7.03;;
4011;SDS011;2020;48.682;9.024;2023-02-05T06:57:11;10.93;;;7.20;;
4011;SDS011;2020;48.682;9.024;2023-02-05T06:59:37;12.03;;;7.53;;
4011;SDS011;2020;48.682;9.024;2023-02-05T07:02:02;13.13;;;9.00;;
4011;SDS011;2020;48.682;9.024;2023-02-05T07:04:28;6.77;;;5.93;;
4011;SDS011;2020;48.682;9.024;2023-02-05T07:06:55;11.30;;;7.93;;
4011;SDS011;2020;48.682;9.024;2023-02-05T07:09:20;12.10;;;8.20;;
4011;SDS011;2020;48.682;9.024;2023-02-05T07:11:46;15.73;;;8.80;;
4011;SDS011;2020;48.682;9.024;2023-02-05T07:14:11;12.93;;;9.07;;
4011;SDS011;2020;48.682;9.024;2023-02-05T07:16:36;19.23;;;8.27;;
4011;SDS011;2020;48.682;9.024;2023-02-05T07:19:02;13.47;;;9.53;;
4011;SDS011;2020;48.682;9.024;2023-02-05T07:21:27;12.20;;;8.93;;
4011;SDS011;2020;48.682;9.024;2023-02-05T07:23:53;14.30;;;9.43;;
4011;SDS011;2020;48.682;9.024;2023-02-05T07:26:18;15.50;;;10.30;;
4011;SDS011;2020;48.682;9.024;2023-02-05T07:28:43;10.70;;;9.60;;
4011;SDS011;2020;48.682;9.024;2023-02-05T07:31:09;10.17;;;9.00;;
4011;SDS011;2020;48.682;9.024;2023-02-05T07:33:39;12.90;;;8.80;;
4011;SDS011;2020;48.682;9.024;2023-02-05T07:36:05;9.97;;;7.63;;
4011;SDS011;2020;48.682;9.024;2023-02-05T07:38:32;8.87;;;8.00;;
4011;SDS011;2020;48.682;9.024;2023-02-05T07:40:58;12.80;;;8.57;;
4011;SDS011;2020;48.682;9.024;2023-02-05T07:43:30;19.10;;;9.90;;
4011;SDS011;2020;48.682;9.024;2023-02-05T07:46:00;12.17;;;9.03;;
4011;SDS011;2020;48.682;9.024;2023-02-05T07:48:30;13.20;;;9.07;;
4011;SDS011;2020;48.682;9.024;2023-02-05T07:50:56;12.00;;;9.20;;
4011;SDS011;2020;48.682;9.024;2023-02-05T07:53:21;11.87;;;7.90;;
4011;SDS011;2020;48.682;9.024;2023-02-05T07:55:47;9.43;;;8.37;;
4011;SDS011;2020;48.682;9.024;2023-02-05T07:58:12;8.67;;;7.67;;
4011;SDS011;2020;48.682;9.024;2023-02-05T08:00:38;11.87;;;9.20;;
4011;SDS011;2020;48.682;9.024;2023-02-05T08:03:04;9.90;;;7.67;;
4011;SDS011;2020;48.682;9.024;2023-02-05T08:05:29;11.70;;;7.93;;
4011;SDS011;2020;48.682;9.024;2023-02-05T08:07:54;8.30;;;7.50;;
4011;SDS011;2020;48.682;9.024;2023-02-05T08:10:20;8.40;;;7.43;;
4011;SDS011;2020;48.682;9.024;2023-02-05T08:12:45;11.53;;;7.90;;
4011;SDS011;2020;48.682;9.024;2023-02-05T08:15:11;8.40;;;7.40;;
4011;SDS011;2020;48.682;9.024;2023-02-05T08:17:36;12.00;;;7.60;;
4011;SDS011;2020;48.682;9.024;2023-02-05T08:20:02;8.37;;;7.07;;
4011;SDS011;2020;48.682;9.024;2023-02-05T08:22:31;14.83;;;7.90;;
4011;SDS011;2020;48.682;9.024;2023-02-05T08:24:58;10.97;;;7.77;;
4011;SDS011;2020;48.682;9.024;2023-02-05T08:27:23;8.17;;;7.10;;
4011;SDS011;2020;48.682;9.024;2023-02-05T08:29:48;7.33;;;6.23;;
4011;SDS011;2020;48.682;9.024;2023-02-05T08:32:14;7.80;;;6.97;;
4011;SDS011;2020;48.682;9.024;2023-02-05T08:34:39;7.70;;;6.43;;
4011;SDS011;2020;48.682;9.024;2023-02-05T08:37:04;7.63;;;6.90;;
4011;SDS011;2020;48.682;9.024;2023-02-05T08:39:29;8.10;;;6.50;;
4011;SDS011;2020;48.682;9.024;2023-02-05T08:41:55;10.97;;;7.20;;
4011;SDS011;2020;48.682;9.024;2023-02-05T08:44:20;12.87;;;6.73;;
4011;SDS011;2020;48.682;9.024;2023-02-05T08:46:45;6.40;;;5.27;;
4011;SDS011;2020;48.682;9.024;2023-02-05T08:49:10;5.60;;;5.10;;
4011;SDS011;2020;48.682;9.024;2023-02-05T08:51:36;12.73;;;6.20;;
4011;SDS011;2020;48.682;9.024;2023-02-05T08:54:01;9.13;;;6.60;;
4011;SDS011;2020;48.682;9.024;2023-02-05T08:56:26;10.60;;;6.30;;
4011;SDS011;2020;48.682;9.024;2023-02-05T08:58:52;7.00;;;5.80;;
4011;SDS011;2020;48.682;9.024;2023-02-05T09:01:17;8.83;;;7.70;;
4011;SDS011;2020;48.682;9.024;2023-02-05T09:03:43;12.33;;;6.70;;
4011;SDS011;2020;48.682;9.024;2023-02-05T09:06:09;13.77;;;7.10;;
4011;SDS011;2020;48.682;9.024;2023-02-05T09:08:37;11.27;;;7.00;;
4011;SDS011;2020;48.682;9.024;2023-02-05T09:11:03;7.23;;;6.50;;
4011;SDS011;2020;48.682;9.024;2023-02-05T09:13:29;9.53;;;6.40;;
4011;SDS011;2020;48.682;9.024;2023-02-05T09:15:54;10.20;;;7.00;;
4011;SDS011;2020;48.682;9.024;2023-02-05T09:18:20;9.30;;;7.63;;
4011;SDS011;2020;48.682;9.024;2023-02-05T09:20:46;8.37;;;7.73;;
4011;SDS011;2020;48.682;9.024;2023-02-05T09:23:14;7.07;;;5.83;;
4011;SDS011;2020;48.682;9.024;2023-02-05T09:25:41;6.57;;;5.97;;
4011;SDS011;2020;48.682;9.024;2023-02-05T09:28:07;10.50;;;5.80;;
4011;SDS011;2020;48.682;9.024;2023-02-05T09:30:38;15.20;;;7.80;;
4011;SDS011;2020;48.682;9.024;2023-02-05T09:33:05;11.07;;;6.67;;
4011;SDS011;2020;48.682;9.024;2023-02-05T09:35:31;12.13;;;6.20;;
4011;SDS011;2020;48.682;9.024;2023-02-05T09:37:57;8.57;;;5.87;;
4011;SDS011;2020;48.682;9.024;2023-02-05T09:40:23;8.97;;;5.33;;
4011;SDS011;2020;48.682;9.024;2023-02-05T09:43:00;9.03;;;6.67;;
4011;SDS011;2020;48.682;9.024;2023-02-05T09:45:47;12.67;;;5.87;;
4011;SDS011;2020;48.682;9.024;2023-02-05T09:48:37;13.03;;;6.53;;
4011;SDS011;2020;48.682;9.024;2023-02-05T09:51:16;7.80;;;5.30;;
4011;SDS011;2020;48.682;9.024;2023-02-05T09:53:46;6.00;;;5.57;;
4011;SDS011;2020;48.682;9.024;2023-02-05T09:56:16;8.23;;;5.77;;
4011;SDS011;2020;48.682;9.024;2023-02-05T09:58:43;6.87;;;5.90;;
4011;SDS011;2020;48.682;9.024;2023-02-05T10:01:13;5.33;;;4.60;;
4011;SDS011;2020;48.682;9.024;2023-02-05T10:03:44;8.90;;;6.47;;
4011;SDS011;2020;48.682;9.024;2023-02-05T10:11:56;9.57;;;6.30;;
4011;SDS011;2020;48.682;9.024;2023-02-05T10:20:05;8.53;;;5.57;;
4011;SDS011;2020;48.682;9.024;2023-02-05T10:22:45;9.77;;;5.97;;
4011;SDS011;2020;48.682;9.024;2023-02-05T10:25:33;9.73;;;6.10;;
4011;SDS011;2020;48.682;9.024;2023-02-05T10:31:39;6.53;;;5.53;;
4011;SDS011;2020;48.682;9.024;2023-02-05T10:34:18;8.93;;;6.10;;
4011;SDS011;2020;48.682;9.024;2023-02-05T10:37:16;8.17;;;5.83;;
4011;SDS011;2020;48.682;9.024;2023-02-05T10:39:43;9.50;;;4.93;;
4011;SDS011;2020;48.682;9.024;2023-02-05T10:42:16;7.30;;;6.10;;
4011;SDS011;2020;48.682;9.024;2023-02-05T10:44:48;13.73;;;7.00;;
4011;SDS011;2020;48.682;9.024;2023-02-05T10:52:48;7.40;;;5.37;;
4011;SDS011;2020;48.682;9.024;2023-02-05T10:55:13;7.97;;;7.23;;
4011;SDS011;2020;48.682;9.024;2023-02-05T10:57:38;10.33;;;6.27;;
4011;SDS011;2020;48.682;9.024;2023-02-05T11:00:06;7.53;;;5.73;;
4011;SDS011;2020;48.682;9.024;2023-02-05T11:02:39;6.97;;;4.87;;
4011;SDS011;2020;48.682;9.024;2023-02-05T11:05:18;7.73;;;5.73;;
4011;SDS011;2020;48.682;9.024;2023-02-05T11:07:47;8.33;;;5.40;;
4011;SDS011;2020;48.682;9.024;2023-02-05T11:10:21;8.07;;;5.53;;
4011;SDS011;2020;48.682;9.024;2023-02-05T11:12:52;11.10;;;6.00;;
4011;SDS011;2020;48.682;9.024;2023-02-05T11:15:28;10.20;;;6.93;;
4011;SDS011;2020;48.682;9.024;2023-02-05T11:17:55;13.73;;;6.60;;
4011;SDS011;2020;48.682;9.024;2023-02-05T11:20:26;15.67;;;8.40;;
4011;SDS011;2020;48.682;9.024;2023-02-05T11:25:33;20.77;;;6.37;;
4011;SDS011;2020;48.682;9.024;2023-02-05T11:27:58;6.77;;;5.40;;
4011;SDS011;2020;48.682;9.024;2023-02-05T11:32:54;13.50;;;6.80;;
4011;SDS011;2020;48.682;9.024;2023-02-05T11:35:28;11.80;;;5.87;;
4011;SDS011;2020;48.682;9.024;2023-02-05T11:38:06;6.73;;;5.90;;
4011;SDS011;2020;48.682;9.024;2023-02-05T11:40:33;6.50;;;5.13;;
4011;SDS011;2020;48.682;9.024;2023-02-05T11:43:03;6.73;;;5.10;;
4011;SDS011;2020;48.682;9.024;2023-02-05T11:45:29;7.70;;;5.87;;
4011;SDS011;2020;48.682;9.024;2023-02-05T11:47:56;6.83;;;5.57;;
4011;SDS011;2020;48.682;9.024;2023-02-05T11:50:26;12.53;;;6.90;;
4011;SDS011;2020;48.682;9.024;2023-02-05T11:52:53;6.93;;;5.30;;
4011;SDS011;2020;48.682;9.024;2023-02-05T11:55:29;17.73;;;5.83;;
4011;SDS011;2020;48.682;9.024;2023-02-05T11:58:01;4.83;;;4.43;;
4011;SDS011;2020;48.682;9.024;2023-02-05T12:00:30;5.80;;;5.20;;
4011;SDS011;2020;48.682;9.024;2023-02-05T12:05:41;8.50;;;5.57;;
4011;SDS011;2020;48.682;9.024;2023-02-05T12:13:29;7.03;;;4.70;;
4011;SDS011;2020;48.682;9.024;2023-02-05T12:16:35;6.10;;;5.47;;
4011;SDS011;2020;48.682;9.024;2023-02-05T12:19:12;7.47;;;5.43;;
4011;SDS011;2020;48.682;9.024;2023-02-05T12:21:45;5.37;;;3.77;;
4011;SDS011;2020;48.682;9.024;2023-02-05T12:38:07;4.33;;;4.07;;
4011;SDS011;2020;48.682;9.024;2023-02-05T12:41:18;4.17;;;3.53;;
4011;SDS011;2020;48.682;9.024;2023-02-05T12:43:37;3.90;;;3.60;;
4011;SDS011;2020;48.682;9.024;2023-02-05T12:56:44;4.80;;;4.50;;
4011;SDS011;2020;48.682;9.024;2023-02-05T13:05:18;3.60;;;3.40;;
4011;SDS011;2020;48.682;9.024;2023-02-05T13:13:52;3.73;;;3.53;;
4011;SDS011;2020;48.682;9.024;2023-02-05T13:16:41;3.90;;;3.60;;
4011;SDS011;2020;48.682;9.024;2023-02-05T13:19:30;3.97;;;3.83;;
4011;SDS011;2020;48.682;9.024;2023-02-05T13:21:59;3.77;;;3.57;;
4011;SDS011;2020;48.682;9.024;2023-02-05T13:24:53;3.60;;;3.40;;
4011;SDS011;2020;48.682;9.024;2023-02-05T13:27:41;3.90;;;3.60;;
4011;SDS011;2020;48.682;9.024;2023-02-05T13:30:34;5.17;;;4.73;;
4011;SDS011;2020;48.682;9.024;2023-02-05T13:33:03;7.13;;;5.67;;
4011;SDS011;2020;48.682;9.024;2023-02-05T13:35:32;5.43;;;5.03;;
4011;SDS011;2020;48.682;9.024;2023-02-05T13:38:16;5.23;;;4.83;;
4011;SDS011;2020;48.682;9.024;2023-02-05T13:44:14;4.07;;;3.73;;
4011;SDS011;2020;48.682;9.024;2023-02-05T13:49:36;3.80;;;3.60;;
4011;SDS011;2020;48.682;9.024;2023-02-05T13:55:19;3.20;;;3.00;;
4011;SDS011;2020;48.682;9.024;2023-02-05T13:58:21;3.83;;;2.60;;
4011;SDS011;2020;48.682;9.024;2023-02-05T14:00:59;5.87;;;3.37;;
4011;SDS011;2020;48.682;9.024;2023-02-05T14:03:36;3.60;;;3.30;;
4011;SDS011;2020;48.682;9.024;2023-02-05T14:06:18;3.20;;;3.00;;
4011;SDS011;2020;48.682;9.024;2023-02-05T14:08:55;2.20;;;2.10;;
4011;SDS011;2020;48.682;9.024;2023-02-05T14:11:23;3.60;;;3.37;;
4011;SDS011;2020;48.682;9.024;2023-02-05T14:14:12;3.07;;;2.87;;
4011;SDS011;2020;48.682;9.024;2023-02-05T14:16:44;5.13;;;4.17;;
4011;SDS011;2020;48.682;9.024;2023-02-05T14:24:24;3.23;;;3.03;;
4011;SDS011;2020;48.682;9.024;2023-02-05T14:35:38;3.27;;;2.83;;
4011;SDS011;2020;48.682;9.024;2023-02-05T14:38:22;3.00;;;2.90;;
4011;SDS011;2020;48.682;9.024;2023-02-05T14:41:12;2.50;;;2.40;;
4011;SDS011;2020;48.682;9.024;2023-02-05T14:43:40;2.70;;;2.53;;
4011;SDS011;2020;48.682;9.024;2023-02-05T14:46:27;2.67;;;2.57;;
4011;SDS011;2020;48.682;9.024;2023-02-05T14:48:55;3.23;;;3.10;;
4011;SDS011;2020;48.682;9.024;2023-02-05T14:54:04;3.93;;;3.10;;
4011;SDS011;2020;48.682;9.024;2023-02-05T14:56:51;3.70;;;3.40;;
4011;SDS011;2020;48.682;9.024;2023-02-05T14:59:37;2.40;;;2.30;;
4011;SDS011;2020;48.682;9.024;2023-02-05T15:05:13;6.13;;;5.53;;
4011;SDS011;2020;48.682;9.024;2023-02-05T15:07:41;4.57;;;4.27;;
4011;SDS011;2020;48.682;9.024;2023-02-05T15:10:12;3.83;;;3.53;;
4011;SDS011;2020;48.682;9.024;2023-02-05T15:13:00;13.60;;;8.83;;
4011;SDS011;2020;48.682;9.024;2023-02-05T15:15:33;28.10;;;13.43;;
4011;SDS011;2020;48.682;9.024;2023-02-05T15:18:09;74.47;;;20.83;;
4011;SDS011;2020;48.682;9.024;2023-02-05T15:20:40;32.90;;;9.50;;
4011;SDS011;2020;48.682;9.024;2023-02-05T15:23:23;17.40;;;6.73;;
4011;SDS011;2020;48.682;9.024;2023-02-05T15:26:40;17.03;;;7.40;;
4011;SDS011;2020;48.682;9.024;2023-02-05T15:31:32;23.03;;;11.37;;
4011;SDS011;2020;48.682;9.024;2023-02-05T15:37:05;34.63;;;15.17;;
4011;SDS011;2020;48.682;9.024;2023-02-05T15:39:51;57.20;;;22.47;;
4011;SDS011;2020;48.682;9.024;2023-02-05T15:42:36;31.67;;;15.37;;
4011;SDS011;2020;48.682;9.024;2023-02-05T15:48:01;15.23;;;9.00;;
4011;SDS011;2020;48.682;9.024;2023-02-05T15:50:47;13.33;;;7.47;;
4011;SDS011;2020;48.682;9.024;2023-02-05T15:53:33;9.40;;;7.73;;
4011;SDS011;2020;48.682;9.024;2023-02-05T15:58:53;7.37;;;6.60;;
4011;SDS011;2020;48.682;9.024;2023-02-05T16:01:23;6.30;;;5.70;;
4011;SDS011;2020;48.682;9.024;2023-02-05T16:03:50;6.47;;;5.83;;
4011;SDS011;2020;48.682;9.024;2023-02-05T16:06:19;8.60;;;7.80;;
4011;SDS011;2020;48.682;9.024;2023-02-05T16:08:46;12.67;;;7.77;;
4011;SDS011;2020;48.682;9.024;2023-02-05T16:11:21;11.53;;;9.63;;
4011;SDS011;2020;48.682;9.024;2023-02-05T16:14:09;8.63;;;7.93;;
4011;SDS011;2020;48.682;9.024;2023-02-05T16:16:41;8.50;;;7.63;;
4011;SDS011;2020;48.682;9.024;2023-02-05T16:19:14;12.77;;;8.83;;
4011;SDS011;2020;48.682;9.024;2023-02-05T16:21:47;9.93;;;9.03;;
4011;SDS011;2020;48.682;9.024;2023-02-05T16:24:24;9.83;;;8.90;;
4011;SDS011;2020;48.682;9.024;2023-02-05T16:29:45;10.13;;;9.17;;
4011;SDS011;2020;48.682;9.024;2023-02-05T16:34:54;7.60;;;7.13;;
4011;SDS011;2020;48.682;9.024;2023-02-05T16:37:20;7.93;;;7.23;;
4011;SDS011;2020;48.682;9.024;2023-02-05T16:39:54;8.57;;;7.87;;
4011;SDS011;2020;48.682;9.024;2023-02-05T16:47:33;5.57;;;5.23;;
4011;SDS011;2020;48.682;9.024;2023-02-05T16:49:59;7.17;;;6.57;;
4011;SDS011;2020;48.682;9.024;2023-02-05T16:52:32;6.93;;;6.33;;
4011;SDS011;2020;48.682;9.024;2023-02-05T16:55:12;5.90;;;5.40;;
4011;SDS011;2020;48.682;9.024;2023-02-05T16:57:50;7.43;;;6.83;;
4011;SDS011;2020;48.682;9.024;2023-02-05T17:00:18;8.20;;;7.53;;
4011;SDS011;2020;48.682;9.024;2023-02-05T17:02:52;8.10;;;7.30;;
4011;SDS011;2020;48.682;9.024;2023-02-05T17:05:26;6.60;;;6.10;;
4011;SDS011;2020;48.682;9.024;2023-02-05T17:07:58;5.80;;;5.40;;
4011;SDS011;2020;48.682;9.024;2023-02-05T17:10:26;6.00;;;5.60;;
4011;SDS011;2020;48.682;9.024;2023-02-05T17:12:59;6.37;;;5.90;;
4011;SDS011;2020;48.682;9.024;2023-02-05T17:15:35;6.00;;;5.60;;
4011;SDS011;2020;48.682;9.024;2023-02-05T17:20:42;8.73;;;7.93;;
4011;SDS011;2020;48.682;9.024;2023-02-05T17:23:10;7.60;;;6.93;;
4011;SDS011;2020;48.682;9.024;2023-02-05T17:25:42;8.00;;;7.23;;
4011;SDS011;2020;48.682;9.024;2023-02-05T17:28:20;9.90;;;9.00;;
4011;SDS011;2020;48.682;9.024;2023-02-05T17:30:49;22.30;;;19.93;;
4011;SDS011;2020;48.682;9.024;2023-02-05T17:33:20;23.23;;;17.87;;
4011;SDS011;2020;48.682;9.024;2023-02-05T17:35:47;15.33;;;13.80;;
4011;SDS011;2020;48.682;9.024;2023-02-05T17:38:13;8.53;;;7.70;;
4011;SDS011;2020;48.682;9.024;2023-02-05T17:40:39;7.47;;;6.87;;
4011;SDS011;2020;48.682;9.024;2023-02-05T17:43:05;7.33;;;6.80;;
4011;SDS011;2020;48.682;9.024;2023-02-05T17:45:31;6.87;;;6.27;;
4011;SDS011;2020;48.682;9.024;2023-02-05T17:47:58;7.23;;;6.67;;
4011;SDS011;2020;48.682;9.024;2023-02-05T17:50:24;6.57;;;6.07;;
4011;SDS011;2020;48.682;9.024;2023-02-05T17:52:49;5.33;;;5.03;;
4011;SDS011;2020;48.682;9.024;2023-02-05T17:55:17;5.47;;;5.17;;
4011;SDS011;2020;48.682;9.024;2023-02-05T17:57:43;5.97;;;5.47;;
4011;SDS011;2020;48.682;9.024;2023-02-05T18:00:13;5.90;;;5.50;;